Aérodrome :
LOGIN :

S'inscrire | Disclaimer

   EN    FR    IT 

 










Légende :    VFR   VFR Marginal   IFR   IFR Intensif   IFR Très Intensif
Visi : 
Plafond : 
>= 8 km
>= 3000ft
5 à 8 km
1000 à 3000 ft
1500m à 5 km
500 à 1000 ft
800 à 1500m
200 à 500 ft
< 800m
< 200 ft
Symboles :   Orages  Brouillard  Fortes neiges  Fortes précipitations  Vent > 20 kt
SIGMETs :   Divers  Orages  Givrage  Turbulence  Onde Orograph.  Cendres Volcan.







- Altitude de l'aérodrome : 231 ft
- Code IATA : WTN


EGXW - RAF Waddington

DERNIER METAR :
  • 210350Z 27007KT CAVOK M00/M02 Q1012 BLU

METARs EXPIRÉS :
  • 210250Z 26006KT CAVOK M00/M02 Q1012 BLU
  • 210150Z 25008KT CAVOK M01/M02 Q1012 BLU

TAF TAF EGXW
Valide du 21 à 03h jusqu'au 21 à 21h UTC


210150Z 2103/2121 30005KT 8000 BR NSC
TEMPO 2103/2110 4000 BR
BECMG 2110/2112 -RA BKN010
TEMPO 2112/2115 3000 RASN BKN004
PROB30
TEMPO 2112/2114 0500 SN BKN001
TEMPO 2115/2121 3000 RADZ BKN004
PROB30
TEMPO 2115/2117 FZRA BKN002
Pas de NOTAMs connus pour ce terrain.
1 SIGMET publié pour la FIR London (EGTT) :
 
Givrage fort
EGTT SIGMET 02 VALID 210435/210715 EGRR
EGTT LONDON FIR SEV ICE FCST WI N5500 W00530 - N5500 W00313 - N5321 W00005 - N5120 W00240 - N5231 W00530 - N5500 W00530 FL020/140 MOV ESE 15KT NC=



MET'MAP, la Météo Aéronautique d'un coup d'oeil ! - Copyright ORBIFLY Décembre 2007 - Disclaimer

ORBIFLY MET'MAP TEAM :

Programmation & Développement : Alexandra Zaïnal
Conception & Développement : Baudouin d'Aumeries
Co-Programmation & Développement : Marc-Olivier Méhu
Soutien technique & logistique : Manuel Goepfert

Contact : metmap@orbifly.com




SOURCES & CREDITS :

   NOAA